createdAt,value
2022-10-05T00:00:51.287Z,88.88
2022-10-05T00:01:53.967Z,89.97
2022-10-05T00:02:57.129Z,91.04
2022-10-05T00:04:15.683Z,90.98
2022-10-05T00:05:32.222Z,90.21
2022-10-05T00:06:35.107Z,90.54
2022-10-05T00:07:37.695Z,90.27
2022-10-05T00:08:40.603Z,90.50
2022-10-05T00:09:46.085Z,90.10
2022-10-05T00:10:49.017Z,89.53
2022-10-05T00:11:52.074Z,89.10
2022-10-05T00:12:54.719Z,88.81
2022-10-05T00:13:58.334Z,88.35
2022-10-05T00:15:01.192Z,88.31
2022-10-05T00:16:19.877Z,88.47
2022-10-05T00:17:25.819Z,89.12
2022-10-05T00:18:28.916Z,89.48
2022-10-05T00:19:35.827Z,89.82
2022-10-05T00:20:41.560Z,90.33
2022-10-05T00:21:44.224Z,90.43
2022-10-05T00:22:47.597Z,90.09
2022-10-05T00:23:50.587Z,89.67
2022-10-05T00:24:58.615Z,89.37
2022-10-05T00:26:16.653Z,89.34
2022-10-05T00:27:23.528Z,89.09
2022-10-05T00:28:30.579Z,89.32
2022-10-05T00:29:34.655Z,89.88
2022-10-05T00:30:37.207Z,90.16
2022-10-05T00:31:39.861Z,90.02
2022-10-05T00:32:42.773Z,90.03
2022-10-05T00:33:45.791Z,89.41
2022-10-05T00:34:48.682Z,88.62
2022-10-05T00:35:55.230Z,88.73
2022-10-05T00:36:58.926Z,89.48
2022-10-05T00:38:01.535Z,89.05
2022-10-05T00:39:04.226Z,89.38
2022-10-05T00:40:27.518Z,89.91
2022-10-05T00:41:33.771Z,89.84
2022-10-05T00:42:59.563Z,89.08
2022-10-05T00:44:33.645Z,88.49
2022-10-05T00:45:41.889Z,88.68
2022-10-05T00:46:44.596Z,89.23
2022-10-05T00:47:47.327Z,89.14
2022-10-05T00:49:25.298Z,88.31
2022-10-05T00:50:58.504Z,87.90
2022-10-05T00:52:20.523Z,88.75
2022-10-05T00:53:45.132Z,88.63
2022-10-05T00:55:19.661Z,88.89
2022-10-05T00:56:56.209Z,89.00
2022-10-05T00:58:35.444Z,88.95
2022-10-05T00:59:46.825Z,89.28
2022-10-05T01:01:21.237Z,89.30
2022-10-05T01:02:39.207Z,89.04
2022-10-05T01:04:13.700Z,89.26
2022-10-05T01:05:36.107Z,89.88
2022-10-05T01:06:47.869Z,90.08
2022-10-05T01:08:24.980Z,91.92
2022-10-05T01:09:40.464Z,89.86
2022-10-05T01:10:56.387Z,89.18
2022-10-05T01:12:08.487Z,89.07
2022-10-05T01:13:49.292Z,88.92
2022-10-05T01:15:24.068Z,91.30
2022-10-05T01:16:29.775Z,90.52
2022-10-05T01:18:06.716Z,90.41
2022-10-05T01:19:32.710Z,89.89
2022-10-05T01:21:31.913Z,89.46
2022-10-05T01:22:56.205Z,88.07
2022-10-05T01:23:58.763Z,88.28
2022-10-05T01:25:12.821Z,88.71
2022-10-05T01:26:43.791Z,88.91
2022-10-05T01:28:12.619Z,89.31
2022-10-05T01:29:30.705Z,89.75
2022-10-05T01:31:07.481Z,89.54
2022-10-05T01:32:39.268Z,88.87
2022-10-05T01:34:11.484Z,88.34
2022-10-05T01:35:20.130Z,88.64
2022-10-05T01:36:54.912Z,89.53
2022-10-05T01:38:03.625Z,89.74
2022-10-05T01:39:42.217Z,90.36
2022-10-05T01:41:10.081Z,90.42
2022-10-05T01:42:30.610Z,90.87
2022-10-05T01:44:00.910Z,90.70
2022-10-05T01:45:42.071Z,90.60
2022-10-05T01:47:09.403Z,91.02
2022-10-05T01:48:22.664Z,90.76
2022-10-05T01:49:31.694Z,90.75
2022-10-05T01:50:59.000Z,90.53
2022-10-05T01:52:01.661Z,90.01
2022-10-05T01:53:06.964Z,90.92
2022-10-05T01:54:09.706Z,92.87
2022-10-05T01:55:27.096Z,91.92
2022-10-05T01:57:10.846Z,91.06
2022-10-05T01:58:27.911Z,90.45
2022-10-05T01:59:42.268Z,90.59
2022-10-05T02:01:06.735Z,90.47
2022-10-05T02:02:19.147Z,90.40
2022-10-05T02:03:28.672Z,90.33
2022-10-05T02:05:01.465Z,90.82
2022-10-05T02:06:13.482Z,91.67
2022-10-05T02:07:44.689Z,90.52
2022-10-05T02:08:48.753Z,90.48
2022-10-05T02:09:59.487Z,90.26
2022-10-05T02:11:10.253Z,90.21
2022-10-05T02:12:19.213Z,90.31
2022-10-05T02:13:30.687Z,90.76
2022-10-05T02:14:38.463Z,90.25
2022-10-05T02:15:59.236Z,90.06
2022-10-05T02:17:06.975Z,89.87
2022-10-05T02:18:17.821Z,89.96
2022-10-05T02:19:20.225Z,89.98
2022-10-05T02:20:30.296Z,90.09
2022-10-05T02:21:34.981Z,89.40
2022-10-05T02:22:42.956Z,89.05
2022-10-05T02:23:49.493Z,89.50
2022-10-05T02:24:57.670Z,89.64
2022-10-05T02:26:01.649Z,89.49
2022-10-05T02:27:07.816Z,89.69
2022-10-05T02:28:16.287Z,90.06
2022-10-05T02:29:24.213Z,90.26
2022-10-05T02:30:29.865Z,91.13
2022-10-05T02:31:43.340Z,92.37
2022-10-05T02:33:01.475Z,91.77
2022-10-05T02:34:43.605Z,91.71
2022-10-05T02:35:47.169Z,91.11
2022-10-05T02:37:30.820Z,91.33
2022-10-05T02:38:42.266Z,91.66
2022-10-05T02:39:58.721Z,91.21
2022-10-05T02:41:20.018Z,90.63
2022-10-05T02:42:54.743Z,90.73
2022-10-05T02:44:22.754Z,90.82
2022-10-05T02:45:53.964Z,91.45
2022-10-05T02:47:17.870Z,91.61
2022-10-05T02:48:41.577Z,91.81
2022-10-05T02:49:59.336Z,91.23
2022-10-05T02:51:23.062Z,90.78
2022-10-05T02:52:34.685Z,91.57
2022-10-05T02:53:58.793Z,91.76
2022-10-05T02:55:17.922Z,91.11
2022-10-05T02:56:44.898Z,90.47
2022-10-05T02:58:11.039Z,90.46
2022-10-05T02:59:34.742Z,89.90
2022-10-05T03:00:46.698Z,89.80
2022-10-05T03:02:13.912Z,89.50
2022-10-05T03:03:43.455Z,90.38
2022-10-05T03:04:54.154Z,90.79
2022-10-05T03:06:17.191Z,90.94
2022-10-05T03:07:38.229Z,91.03
2022-10-05T03:09:00.241Z,91.13
2022-10-05T03:10:27.056Z,91.45
2022-10-05T03:12:06.582Z,91.66
2022-10-05T03:13:23.982Z,91.11
2022-10-05T03:14:46.771Z,92.09
2022-10-05T03:15:58.777Z,92.72
2022-10-05T03:17:25.271Z,92.96
2022-10-05T03:18:40.046Z,92.33
2022-10-05T03:19:57.555Z,91.92
2022-10-05T03:21:12.263Z,91.53
2022-10-05T03:22:39.092Z,91.22
2022-10-05T03:23:47.497Z,91.15
2022-10-05T03:24:58.602Z,91.25
2022-10-05T03:26:14.779Z,91.01
2022-10-05T03:27:32.383Z,91.34
2022-10-05T03:28:43.740Z,91.40
2022-10-05T03:30:11.781Z,91.75
2022-10-05T03:31:29.506Z,91.81
2022-10-05T03:32:51.334Z,92.38
2022-10-05T03:34:17.294Z,92.05
2022-10-05T03:35:49.276Z,92.31
2022-10-05T03:37:00.821Z,92.61
2022-10-05T03:38:24.026Z,92.25
2022-10-05T03:39:52.237Z,91.54
2022-10-05T03:40:59.222Z,91.32
2022-10-05T03:42:16.736Z,91.43
2022-10-05T03:43:34.519Z,91.85
2022-10-05T03:44:43.625Z,91.61
2022-10-05T03:46:22.973Z,91.08
2022-10-05T03:48:03.093Z,90.48
2022-10-05T03:49:21.760Z,90.47
2022-10-05T03:50:54.696Z,90.87
2022-10-05T03:52:31.464Z,91.03
2022-10-05T03:53:58.553Z,91.28
2022-10-05T03:55:17.798Z,91.27
2022-10-05T03:56:36.120Z,91.59
2022-10-05T03:57:41.411Z,91.65
2022-10-05T03:58:55.418Z,91.73
2022-10-05T04:00:04.982Z,92.09
2022-10-05T04:01:15.399Z,91.55
2022-10-05T04:02:40.874Z,90.86
2022-10-05T04:03:54.928Z,90.80
2022-10-05T04:05:07.490Z,90.10
2022-10-05T04:06:20.175Z,89.61
2022-10-05T04:07:31.604Z,89.84
2022-10-05T04:08:47.632Z,90.16
2022-10-05T04:09:53.347Z,90.00
2022-10-05T04:11:00.987Z,89.71
2022-10-05T04:12:30.425Z,90.06
2022-10-05T04:13:54.788Z,90.27
2022-10-05T04:15:06.081Z,89.83
2022-10-05T04:16:14.130Z,90.44
2022-10-05T04:17:32.381Z,89.68
2022-10-05T04:18:41.814Z,89.73
2022-10-05T04:19:55.150Z,90.30
2022-10-05T04:21:05.694Z,91.33
2022-10-05T04:22:29.950Z,92.06
2022-10-05T04:23:41.553Z,91.90
2022-10-05T04:24:52.899Z,92.34
2022-10-05T04:26:02.482Z,92.71
2022-10-05T04:27:23.024Z,94.10
2022-10-05T04:28:43.878Z,93.29
2022-10-05T04:29:51.359Z,92.24
2022-10-05T04:30:54.842Z,92.00
2022-10-05T04:32:17.614Z,91.04
2022-10-05T04:33:21.771Z,90.53
2022-10-05T04:34:54.511Z,89.65
2022-10-05T04:35:57.049Z,89.98
2022-10-05T04:37:04.833Z,89.93
2022-10-05T04:38:23.810Z,90.51
2022-10-05T04:39:36.846Z,91.20
2022-10-05T04:40:47.943Z,91.46
2022-10-05T04:41:56.442Z,91.68
2022-10-05T04:43:18.831Z,91.26
2022-10-05T04:44:59.531Z,90.68
2022-10-05T04:46:30.967Z,91.41
2022-10-05T04:47:42.611Z,91.28
2022-10-05T04:49:03.693Z,90.51
2022-10-05T04:50:10.377Z,90.76
2022-10-05T04:51:37.328Z,90.76
2022-10-05T04:53:03.303Z,91.10
2022-10-05T04:54:29.747Z,91.11
2022-10-05T04:55:47.216Z,90.76
2022-10-05T04:56:56.171Z,91.36
2022-10-05T04:58:19.607Z,91.68
2022-10-05T04:59:39.234Z,91.69
2022-10-05T05:00:46.584Z,91.07
2022-10-05T05:02:16.663Z,90.55
2022-10-05T05:03:29.380Z,90.58
2022-10-05T05:04:58.763Z,90.80
2022-10-05T05:06:21.024Z,91.17
2022-10-05T05:07:48.742Z,90.70
2022-10-05T05:08:58.201Z,90.46
2022-10-05T05:10:22.130Z,90.41
2022-10-05T05:11:43.407Z,90.58
2022-10-05T05:13:08.907Z,90.69
2022-10-05T05:14:38.710Z,91.49
2022-10-05T05:16:07.283Z,91.97
2022-10-05T05:17:22.633Z,91.91
2022-10-05T05:18:49.096Z,91.98
2022-10-05T05:20:12.130Z,91.77
2022-10-05T05:21:42.437Z,92.18
2022-10-05T05:23:00.139Z,92.65
2022-10-05T05:24:40.330Z,92.04
2022-10-05T05:26:25.175Z,91.66
2022-10-05T05:27:43.181Z,91.62
2022-10-05T05:29:07.609Z,91.79
2022-10-05T05:30:25.829Z,91.26
2022-10-05T05:31:43.627Z,91.59
2022-10-05T05:32:51.979Z,91.84
2022-10-05T05:33:57.364Z,91.33
2022-10-05T05:35:32.156Z,90.42
2022-10-05T05:36:47.147Z,91.12
2022-10-05T05:37:59.603Z,91.46
2022-10-05T05:39:29.670Z,90.80
2022-10-05T05:40:53.492Z,91.21
2022-10-05T05:42:01.131Z,91.49
2022-10-05T05:43:19.986Z,91.10
2022-10-05T05:44:28.291Z,91.06
2022-10-05T05:45:42.689Z,90.99
2022-10-05T05:47:03.486Z,90.59
2022-10-05T05:48:22.379Z,90.44
2022-10-05T05:50:06.652Z,90.34
2022-10-05T05:51:18.317Z,90.78
2022-10-05T05:52:28.833Z,90.73
2022-10-05T05:53:51.372Z,90.56
2022-10-05T05:55:29.758Z,90.39
2022-10-05T05:56:41.432Z,90.34
2022-10-05T05:57:50.908Z,90.57
2022-10-05T05:59:01.365Z,90.78
2022-10-05T06:00:16.532Z,91.04
2022-10-05T06:01:33.626Z,91.41
2022-10-05T06:03:04.145Z,92.56
2022-10-05T06:04:16.118Z,92.77
2022-10-05T06:05:27.624Z,88.91
2022-10-05T06:06:35.928Z,84.77
2022-10-05T06:07:39.654Z,83.21
2022-10-05T06:08:53.351Z,82.01
2022-10-05T06:10:03.010Z,83.55
2022-10-05T06:11:16.566Z,85.05
2022-10-05T06:12:35.974Z,84.15
2022-10-05T06:13:41.525Z,83.79
2022-10-05T06:14:57.777Z,83.06
2022-10-05T06:16:28.634Z,83.48
2022-10-05T06:17:50.359Z,84.14
2022-10-05T06:18:58.895Z,84.91
2022-10-05T06:20:05.709Z,86.02
2022-10-05T06:21:21.172Z,87.87
2022-10-05T06:22:36.280Z,89.38
2022-10-05T06:23:50.714Z,86.57
2022-10-05T06:25:28.898Z,86.25
2022-10-05T06:26:46.452Z,86.96
2022-10-05T06:28:13.130Z,87.43
2022-10-05T06:29:22.897Z,87.78
2022-10-05T06:30:31.249Z,88.30
2022-10-05T06:32:02.441Z,88.25
2022-10-05T06:33:28.725Z,87.96
2022-10-05T06:34:35.627Z,88.33
2022-10-05T06:35:41.298Z,88.70
2022-10-05T06:36:50.578Z,88.90
2022-10-05T06:37:59.453Z,89.23
2022-10-05T06:39:20.506Z,89.64
2022-10-05T06:40:25.770Z,90.15
2022-10-05T06:41:49.505Z,90.00
2022-10-05T06:43:13.670Z,90.79
2022-10-05T06:44:34.774Z,89.78
2022-10-05T06:46:09.529Z,90.19
2022-10-05T06:47:37.223Z,90.84
2022-10-05T06:49:05.633Z,90.31
2022-10-05T06:50:45.156Z,90.27
2022-10-05T06:52:09.932Z,89.81
2022-10-05T06:53:31.968Z,87.61
2022-10-05T06:55:03.977Z,85.13
2022-10-05T06:56:07.044Z,86.54
2022-10-05T06:57:19.734Z,84.89
2022-10-05T06:58:42.793Z,83.28
2022-10-05T07:00:00.946Z,83.99
2022-10-05T07:01:10.854Z,83.99
2022-10-05T07:02:39.988Z,82.31
2022-10-05T07:03:58.137Z,81.95
2022-10-05T07:05:00.767Z,81.61
2022-10-05T07:06:32.001Z,80.40
2022-10-05T07:07:49.926Z,80.40
2022-10-05T07:09:19.271Z,80.38
2022-10-05T07:10:35.498Z,79.56
2022-10-05T07:12:04.933Z,75.35
2022-10-05T07:13:20.500Z,75.80
2022-10-05T07:14:48.387Z,76.79
2022-10-05T07:16:14.209Z,77.28
2022-10-05T07:17:25.626Z,77.08
2022-10-05T07:18:50.768Z,77.27
2022-10-05T07:20:19.648Z,76.80
2022-10-05T07:21:27.882Z,75.41
2022-10-05T07:22:49.486Z,76.62
2022-10-05T07:24:22.756Z,75.03
2022-10-05T07:25:41.825Z,75.72
2022-10-05T07:26:51.105Z,73.84
2022-10-05T07:28:05.689Z,72.08
2022-10-05T07:29:08.443Z,71.04
2022-10-05T07:30:14.405Z,68.97
2022-10-05T07:31:35.404Z,66.09
2022-10-05T07:33:02.803Z,66.75
2022-10-05T07:34:13.925Z,67.25
2022-10-05T07:35:44.534Z,65.01
2022-10-05T07:37:17.904Z,65.19
2022-10-05T07:38:34.234Z,61.80
2022-10-05T07:40:01.095Z,60.92
2022-10-05T07:41:12.905Z,62.78
2022-10-05T07:42:23.184Z,61.34
2022-10-05T07:44:12.506Z,58.76
2022-10-05T07:50:02.658Z,56.66
2022-10-05T07:51:32.309Z,56.66
2022-10-05T07:52:41.319Z,58.43
2022-10-05T07:54:13.571Z,57.62
2022-10-05T07:55:31.000Z,58.23
2022-10-05T07:57:33.054Z,58.02
2022-10-05T07:58:58.685Z,56.18
2022-10-05T08:04:28.105Z,55.05
2022-10-05T08:05:38.430Z,51.88
2022-10-05T08:07:06.146Z,53.21
2022-10-05T08:09:07.106Z,54.71
2022-10-05T08:10:59.411Z,55.54
2022-10-05T08:12:31.414Z,50.57
2022-10-05T08:13:42.843Z,51.20
2022-10-05T08:15:03.629Z,52.03
2022-10-05T08:16:21.919Z,50.05
2022-10-05T08:17:59.234Z,49.73
2022-10-05T08:19:06.939Z,50.35
2022-10-05T08:20:24.542Z,51.18
2022-10-05T08:21:34.148Z,50.79
2022-10-05T08:22:47.318Z,48.80
2022-10-05T08:24:04.764Z,49.70
2022-10-05T08:25:20.385Z,48.57
2022-10-05T08:26:52.151Z,49.81
2022-10-05T08:28:48.976Z,52.14
2022-10-05T08:30:06.123Z,51.56
2022-10-05T08:31:26.231Z,51.21
2022-10-05T08:32:37.993Z,51.07
2022-10-05T08:34:23.909Z,51.06
2022-10-05T08:36:13.175Z,49.96
2022-10-05T08:37:23.998Z,50.85
2022-10-05T08:38:32.587Z,49.79
2022-10-05T08:39:41.146Z,48.78
2022-10-05T08:40:50.522Z,50.42
2022-10-05T08:42:14.317Z,50.09
2022-10-05T08:43:44.827Z,51.17
2022-10-05T08:45:21.573Z,52.47
2022-10-05T08:46:51.705Z,51.20
2022-10-05T08:48:21.469Z,52.28
2022-10-05T08:50:08.441Z,53.98
2022-10-05T08:51:32.288Z,54.59
2022-10-05T08:52:46.204Z,55.61
2022-10-05T08:53:56.436Z,57.07
2022-10-05T08:55:10.927Z,58.12
2022-10-05T08:56:40.465Z,58.67
2022-10-05T08:58:13.373Z,57.10
2022-10-05T08:59:35.258Z,57.82
2022-10-05T09:01:02.792Z,57.06
2022-10-05T09:02:08.694Z,56.34
2022-10-05T09:03:17.102Z,55.64
2022-10-05T09:04:47.446Z,55.49
2022-10-05T09:05:53.194Z,55.19
2022-10-05T09:07:10.025Z,55.43
2022-10-05T09:08:31.251Z,55.65
2022-10-05T09:09:52.553Z,56.64
2022-10-05T09:11:21.107Z,54.89
2022-10-05T09:12:33.050Z,53.94
2022-10-05T09:14:20.668Z,54.08
2022-10-05T09:15:32.294Z,53.02
2022-10-05T09:16:56.393Z,51.70
2022-10-05T09:18:16.083Z,52.52
2022-10-05T09:19:23.049Z,51.78
2022-10-05T09:20:55.979Z,50.45
2022-10-05T09:22:15.832Z,49.89
2022-10-05T09:23:42.018Z,52.33
2022-10-05T09:25:04.024Z,50.93
2022-10-05T09:26:40.856Z,52.50
2022-10-05T09:27:52.730Z,48.99
2022-10-05T09:29:24.414Z,50.32
2022-10-05T09:31:20.150Z,49.18
2022-10-05T09:32:52.169Z,49.42
2022-10-05T09:34:00.593Z,49.90
2022-10-05T09:35:17.262Z,50.71
2022-10-05T09:38:53.558Z,48.09
2022-10-05T09:40:07.734Z,50.00
2022-10-05T09:41:29.344Z,49.30
2022-10-05T09:42:58.357Z,47.69
2022-10-05T09:44:19.987Z,46.67
2022-10-05T09:45:28.577Z,45.58
2022-10-05T09:47:13.324Z,47.12
2022-10-05T09:48:39.920Z,47.02
2022-10-05T09:50:06.157Z,49.37
2022-10-05T09:51:37.251Z,49.88
2022-10-05T09:53:14.613Z,49.05
2022-10-05T09:54:48.815Z,50.91
2022-10-05T09:56:15.483Z,51.12
2022-10-05T09:57:56.020Z,52.55
2022-10-05T09:59:16.585Z,54.78
2022-10-05T10:00:31.356Z,53.29
2022-10-05T10:01:55.085Z,53.65
2022-10-05T10:03:19.794Z,54.35
2022-10-05T10:04:43.685Z,53.97
2022-10-05T10:06:10.733Z,54.10
2022-10-05T10:08:04.948Z,53.97
2022-10-05T10:09:10.350Z,51.95
2022-10-05T10:10:37.684Z,50.93
2022-10-05T10:11:53.434Z,49.54
2022-10-05T10:13:04.999Z,48.48
2022-10-05T10:14:26.075Z,48.58
2022-10-05T10:15:34.388Z,48.45
2022-10-05T10:16:40.516Z,46.84
2022-10-05T10:18:31.624Z,46.46
2022-10-05T10:19:56.788Z,46.87
2022-10-05T10:21:10.954Z,47.16
2022-10-05T10:22:37.631Z,45.75
2022-10-05T10:24:21.337Z,46.07
2022-10-05T10:25:44.330Z,44.93
2022-10-05T10:27:30.370Z,46.25
2022-10-05T10:28:47.809Z,44.20
2022-10-05T10:30:28.426Z,43.57
2022-10-05T10:31:49.601Z,41.90
2022-10-05T10:33:22.801Z,44.08
2022-10-05T10:34:55.626Z,45.15
2022-10-05T10:36:44.211Z,44.77
2022-10-05T10:37:52.839Z,45.80
2022-10-05T10:39:33.122Z,45.48
2022-10-05T10:41:00.385Z,46.04
2022-10-05T10:42:02.923Z,46.50
2022-10-05T10:43:17.404Z,46.51
2022-10-05T10:44:42.183Z,46.73
2022-10-05T10:46:06.471Z,46.59
2022-10-05T10:47:27.681Z,45.68
2022-10-05T10:48:30.942Z,45.22
2022-10-05T10:50:05.309Z,46.74
2022-10-05T10:51:44.922Z,46.21
2022-10-05T10:53:12.156Z,43.91
2022-10-05T10:54:37.001Z,44.43
2022-10-05T10:56:11.839Z,43.44
2022-10-05T10:57:29.940Z,41.64
2022-10-05T10:59:01.860Z,43.34
2022-10-05T11:00:21.066Z,46.51
2022-10-05T11:01:43.009Z,45.37
2022-10-05T11:02:48.761Z,47.61
2022-10-05T11:03:54.039Z,47.18
2022-10-05T11:05:11.604Z,47.16
2022-10-05T11:06:44.830Z,48.45
2022-10-05T11:08:24.120Z,48.76
2022-10-05T11:10:10.099Z,46.73
2022-10-05T11:11:33.037Z,45.49
2022-10-05T11:13:13.355Z,45.82
2022-10-05T11:14:45.414Z,46.71
2022-10-05T11:16:09.309Z,45.31
2022-10-05T11:17:33.781Z,45.21
2022-10-05T11:18:36.632Z,46.46
2022-10-05T11:20:10.778Z,45.35
2022-10-05T11:21:23.227Z,45.41
2022-10-05T11:22:25.870Z,47.10
2022-10-05T11:23:43.631Z,46.78
2022-10-05T11:24:46.391Z,45.74
2022-10-05T11:25:55.032Z,45.26
2022-10-05T11:27:36.305Z,45.96
2022-10-05T11:29:13.380Z,46.13
2022-10-05T11:30:27.769Z,46.45
2022-10-05T11:31:50.680Z,45.64
2022-10-05T11:33:24.788Z,45.19
2022-10-05T11:34:30.367Z,45.35
2022-10-05T11:35:50.719Z,46.12
2022-10-05T11:37:29.538Z,45.45
2022-10-05T11:38:50.844Z,45.18
2022-10-05T11:40:24.666Z,46.72
2022-10-05T11:41:42.450Z,45.19
2022-10-05T11:43:00.443Z,46.12
2022-10-05T11:44:29.005Z,46.49
2022-10-05T11:45:56.363Z,46.53
2022-10-05T11:47:29.209Z,46.12
2022-10-05T11:49:00.773Z,46.83
2022-10-05T11:50:23.703Z,46.50
2022-10-05T11:51:37.702Z,46.39
2022-10-05T11:52:50.420Z,46.95
2022-10-05T11:54:21.367Z,46.05
2022-10-05T11:55:33.860Z,45.54
2022-10-05T11:56:44.830Z,45.95
2022-10-05T11:58:07.738Z,45.40
2022-10-05T11:59:19.833Z,44.18
2022-10-05T12:00:45.157Z,44.77
2022-10-05T12:01:52.946Z,45.04
2022-10-05T12:03:03.471Z,45.98
2022-10-05T12:04:15.620Z,45.35
2022-10-05T12:05:45.835Z,45.39
2022-10-05T12:07:14.012Z,46.20
2022-10-05T12:08:43.135Z,45.54
2022-10-05T12:10:14.572Z,45.30
2022-10-05T12:11:42.970Z,46.30
2022-10-05T12:12:45.800Z,46.57
2022-10-05T12:13:58.894Z,45.46
2022-10-05T12:15:14.770Z,45.54
2022-10-05T12:16:41.818Z,45.53
2022-10-05T12:17:56.785Z,46.07
2022-10-05T12:19:15.187Z,46.31
2022-10-05T12:20:53.552Z,46.71
2022-10-05T12:22:10.946Z,48.64
2022-10-05T12:23:21.501Z,46.64
2022-10-05T12:24:44.007Z,47.29
2022-10-05T12:25:57.210Z,49.14
2022-10-05T12:27:06.496Z,47.34
2022-10-05T12:28:21.548Z,47.85
2022-10-05T12:29:42.280Z,46.01
2022-10-05T12:31:03.817Z,45.22
2022-10-05T12:32:17.914Z,46.52
2022-10-05T12:33:27.666Z,45.01
2022-10-05T12:35:08.269Z,44.47
2022-10-05T12:36:13.748Z,44.86
2022-10-05T12:37:48.460Z,44.92
2022-10-05T12:39:05.280Z,45.66
2022-10-05T12:40:33.760Z,46.23
2022-10-05T12:41:45.729Z,45.40
2022-10-05T12:42:55.021Z,44.43
2022-10-05T12:44:16.274Z,45.28
2022-10-05T12:45:46.395Z,43.06
2022-10-05T12:47:04.733Z,43.31
2022-10-05T12:48:27.840Z,43.63
2022-10-05T12:49:30.544Z,43.38
2022-10-05T12:50:46.956Z,43.88
2022-10-05T12:51:49.610Z,44.54
2022-10-05T12:53:01.744Z,44.74
2022-10-05T12:54:11.603Z,44.76
2022-10-05T12:55:43.176Z,44.38
2022-10-05T12:57:16.621Z,44.86
2022-10-05T12:58:39.248Z,43.79
2022-10-05T13:00:04.568Z,44.18
2022-10-05T13:01:13.718Z,42.78
2022-10-05T13:02:25.227Z,43.53
2022-10-05T13:03:38.388Z,43.91
2022-10-05T13:04:51.210Z,44.29
2022-10-05T13:06:26.094Z,43.38
2022-10-05T13:07:48.973Z,43.46
2022-10-05T13:08:59.733Z,43.58
2022-10-05T13:10:38.294Z,44.70
2022-10-05T13:11:52.467Z,44.46
2022-10-05T13:13:07.343Z,44.48
2022-10-05T13:14:25.373Z,45.13
2022-10-05T13:15:54.720Z,44.13
2022-10-05T13:17:06.895Z,45.54
2022-10-05T13:18:18.881Z,44.84
2022-10-05T13:19:46.128Z,44.91
2022-10-05T13:21:17.222Z,46.00
2022-10-05T13:22:38.007Z,46.07
2022-10-05T13:23:42.486Z,46.74
2022-10-05T13:25:09.364Z,47.06
2022-10-05T13:26:17.916Z,46.69
2022-10-05T13:27:28.126Z,46.17
2022-10-05T13:28:52.586Z,47.49
2022-10-05T13:30:16.230Z,48.03
2022-10-05T13:31:25.210Z,47.64
2022-10-05T13:32:36.198Z,48.03
2022-10-05T13:33:58.238Z,48.12
2022-10-05T13:35:11.345Z,49.00
2022-10-05T13:36:25.922Z,49.06
2022-10-05T13:37:41.023Z,49.23
2022-10-05T13:39:00.873Z,47.97
2022-10-05T13:40:39.374Z,49.50
2022-10-05T13:41:55.442Z,48.77
2022-10-05T13:43:23.516Z,48.33
2022-10-05T13:44:28.891Z,49.38
2022-10-05T13:45:52.605Z,49.19
2022-10-05T13:47:13.676Z,49.60
2022-10-05T13:48:24.384Z,49.35
2022-10-05T13:50:02.945Z,48.50
2022-10-05T13:51:09.995Z,49.32
2022-10-05T13:52:25.054Z,48.98
2022-10-05T13:53:44.860Z,49.47
2022-10-05T13:54:57.425Z,49.89
2022-10-05T13:56:29.182Z,50.14
2022-10-05T13:58:02.775Z,50.43
2022-10-05T13:59:30.450Z,50.77
2022-10-05T14:00:59.607Z,51.29
2022-10-05T14:02:17.705Z,51.37
2022-10-05T14:03:32.625Z,51.33
2022-10-05T14:04:47.193Z,51.05
2022-10-05T14:05:58.457Z,50.97
2022-10-05T14:07:22.302Z,51.38
2022-10-05T14:08:35.776Z,52.78
2022-10-05T14:09:48.456Z,51.61
2022-10-05T14:10:51.249Z,51.37
2022-10-05T14:11:59.198Z,50.90
2022-10-05T14:13:17.507Z,52.40
2022-10-05T14:14:42.809Z,51.78
2022-10-05T14:16:22.718Z,51.56
2022-10-05T14:17:42.958Z,52.69
2022-10-05T14:18:53.420Z,52.28
2022-10-05T14:20:03.190Z,52.14
2022-10-05T14:21:16.998Z,52.39
2022-10-05T14:22:25.162Z,51.62
2022-10-05T14:23:28.942Z,51.64
2022-10-05T14:24:44.162Z,51.98
2022-10-05T14:25:54.235Z,52.15
2022-10-05T14:26:59.156Z,52.39
2022-10-05T14:28:24.632Z,51.61
2022-10-05T14:29:38.516Z,51.55
2022-10-05T14:31:00.797Z,51.16
2022-10-05T14:32:15.094Z,51.63
2022-10-05T14:33:18.028Z,51.44
2022-10-05T14:34:44.992Z,51.69
2022-10-05T14:35:49.617Z,51.97
2022-10-05T14:37:23.107Z,52.37
2022-10-05T14:38:50.180Z,51.96
2022-10-05T14:39:57.823Z,52.11
2022-10-05T14:41:22.155Z,52.23
2022-10-05T14:42:30.848Z,52.11
2022-10-05T14:43:35.282Z,52.30
2022-10-05T14:44:41.656Z,52.42
2022-10-05T14:45:59.576Z,52.90
2022-10-05T14:47:18.680Z,52.57
2022-10-05T14:48:22.784Z,54.44
2022-10-05T14:49:33.521Z,53.85
2022-10-05T14:51:02.564Z,54.33
2022-10-05T14:52:32.775Z,53.99
2022-10-05T14:53:46.207Z,53.33
2022-10-05T14:55:02.891Z,53.47
2022-10-05T14:56:20.610Z,53.40
2022-10-05T14:57:52.628Z,53.99
2022-10-05T14:58:58.432Z,53.94
2022-10-05T15:00:11.194Z,55.81
2022-10-05T15:01:31.304Z,55.73
2022-10-05T15:03:34.007Z,54.75
2022-10-05T15:04:53.179Z,54.58
2022-10-05T15:06:00.567Z,54.53
2022-10-05T15:07:33.270Z,54.66
2022-10-05T15:08:53.997Z,55.50
2022-10-05T15:10:19.208Z,55.19
2022-10-05T15:11:51.455Z,56.42
2022-10-05T15:12:58.795Z,56.37
2022-10-05T15:14:06.444Z,56.17
2022-10-05T15:15:28.161Z,56.52
2022-10-05T15:16:34.456Z,56.56
2022-10-05T15:17:46.714Z,56.57
2022-10-05T15:19:18.137Z,56.97
2022-10-05T15:20:28.769Z,57.29
2022-10-05T15:21:48.202Z,58.01
2022-10-05T15:22:57.394Z,57.69
2022-10-05T15:24:13.434Z,57.44
2022-10-05T15:25:28.811Z,57.26
2022-10-05T15:26:46.359Z,57.92
2022-10-05T15:28:17.575Z,57.56
2022-10-05T15:29:36.354Z,57.53
2022-10-05T15:30:52.238Z,58.71
2022-10-05T15:32:14.843Z,59.27
2022-10-05T15:33:43.413Z,58.83
2022-10-05T15:35:20.477Z,59.03
2022-10-05T15:36:35.767Z,59.46
2022-10-05T15:37:42.374Z,59.58
2022-10-05T15:39:04.608Z,59.64
2022-10-05T15:40:20.915Z,59.90
2022-10-05T15:41:49.646Z,60.06
2022-10-05T15:42:59.936Z,59.83
2022-10-05T15:44:08.769Z,59.95
2022-10-05T15:45:26.318Z,59.62
2022-10-05T15:46:41.708Z,60.16
2022-10-05T15:47:47.534Z,60.32
2022-10-05T15:49:19.108Z,60.94
2022-10-05T15:50:26.856Z,60.90
2022-10-05T15:51:55.489Z,61.08
2022-10-05T15:53:16.850Z,60.61
2022-10-05T15:54:44.418Z,60.89
2022-10-05T15:56:12.834Z,61.22
2022-10-05T15:57:50.746Z,61.20
2022-10-05T15:59:17.746Z,61.02
2022-10-05T16:00:26.684Z,61.35
2022-10-05T16:01:32.317Z,61.51
2022-10-05T16:02:36.056Z,61.46
2022-10-05T16:03:54.429Z,61.37
2022-10-05T16:05:07.919Z,61.44
2022-10-05T16:07:10.264Z,61.05
2022-10-05T16:08:41.798Z,61.37
2022-10-05T16:10:02.750Z,62.26
2022-10-05T16:11:19.066Z,62.02
2022-10-05T16:12:27.834Z,62.29
2022-10-05T16:13:48.484Z,61.23
2022-10-05T16:15:19.224Z,61.26
2022-10-05T16:16:43.460Z,61.72
2022-10-05T16:18:02.848Z,61.68
2022-10-05T16:19:12.804Z,62.35
2022-10-05T16:20:46.425Z,61.78
2022-10-05T16:22:22.413Z,61.35
2022-10-05T16:23:48.288Z,62.95
2022-10-05T16:25:07.706Z,62.34
2022-10-05T16:26:20.375Z,62.22
2022-10-05T16:27:50.997Z,61.69
2022-10-05T16:29:09.697Z,61.65
2022-10-05T16:30:18.787Z,62.61
2022-10-05T16:31:49.344Z,62.84
2022-10-05T16:33:13.660Z,61.81
2022-10-05T16:34:33.746Z,61.56
2022-10-05T16:35:55.634Z,62.15
2022-10-05T16:37:14.113Z,62.51
2022-10-05T16:39:03.596Z,61.84
2022-10-05T16:40:38.068Z,62.58
2022-10-05T16:41:58.238Z,62.71
2022-10-05T16:43:15.747Z,62.32
2022-10-05T16:44:33.425Z,62.37
2022-10-05T16:46:08.769Z,62.67
2022-10-05T16:47:30.975Z,62.77
2022-10-05T16:49:11.203Z,62.71
2022-10-05T16:50:32.430Z,62.78
2022-10-05T16:52:00.526Z,62.68
2022-10-05T16:53:19.349Z,62.48
2022-10-05T16:54:24.437Z,63.23
2022-10-05T16:55:48.500Z,63.42
2022-10-05T16:57:16.793Z,63.15
2022-10-05T16:58:49.838Z,63.35
2022-10-05T17:00:17.890Z,63.20
2022-10-05T17:01:42.449Z,62.98
2022-10-05T17:02:54.129Z,62.51
2022-10-05T17:04:02.925Z,62.98
2022-10-05T17:05:24.601Z,62.78
2022-10-05T17:06:55.171Z,63.01
2022-10-05T17:08:27.950Z,62.75
2022-10-05T17:09:57.815Z,63.28
2022-10-05T17:11:16.855Z,63.27
2022-10-05T17:12:47.112Z,62.96
2022-10-05T17:14:03.612Z,63.08
2022-10-05T17:15:20.675Z,62.56
2022-10-05T17:16:35.578Z,62.44
2022-10-05T17:18:16.814Z,62.59
2022-10-05T17:19:26.075Z,62.19
2022-10-05T17:20:36.935Z,62.32